📊 Raw Sensor Data

Showing records 48801 to 48825 of 85,107 total

ID Distance (ft) Battery V Battery A Int Temp (°F) Int Humid (%) Ext Temp (°F) Solar V RSSI SNR Time Stamp
36319 15.3 4.13 0 71 41 64 5.10 -80 7 03/29/2025 05:15 PM
36318 15.2 4.03 0 72 40 64 5.10 -79 7 03/29/2025 05:00 PM
36317 -- 4.03 0 73 40 63 5.10 -80 8 03/29/2025 04:45 PM
36316 -- 4.03 0 73 39 63 5.10 -79 8 03/29/2025 04:30 PM
36315 15.2 4.03 0 71 41 64 5.10 -80 7 03/29/2025 04:15 PM
36314 15.2 4.03 0 70 42 62 5.10 -80 8 03/29/2025 04:00 PM
36313 -- 4.03 0 71 41 62 5.10 -81 9 03/29/2025 03:45 PM
36312 15.3 4.03 5 76 38 63 5.10 -79 7 03/29/2025 03:30 PM
36311 15.2 4.03 0 77 37 67 5.10 -82 7 03/29/2025 03:15 PM
36310 15.3 4.03 5 75 37 63 5.10 -80 7 03/29/2025 03:00 PM
36309 15.3 4.03 0 75 37 63 5.10 -81 8 03/29/2025 02:45 PM
36308 -- 4.10 5 74 37 61 5.10 -80 8 03/29/2025 02:30 PM
36307 15.3 4.03 0 74 37 63 5.10 -80 6 03/29/2025 02:15 PM
36306 -- 4.03 5 69 39 60 5.10 -80 8 03/29/2025 02:00 PM
36305 15.3 4.03 0 72 37 60 5.10 -80 7 03/29/2025 01:45 PM
36304 15.4 4.14 5 73 36 63 5.10 -81 7 03/29/2025 01:30 PM
36303 15.3 4.03 0 71 37 62 5.10 -80 8 03/29/2025 01:15 PM
36302 -- 4.03 0 70 37 60 5.10 -80 9 03/29/2025 01:00 PM
36301 15.3 4.03 0 68 37 60 5.10 -81 8 03/29/2025 12:45 PM
36300 15.4 4.03 5 67 37 59 5.10 -80 8 03/29/2025 12:30 PM
36299 -- 4.15 5 66 37 59 5.10 -81 8 03/29/2025 12:15 PM
36298 15.4 4.03 0 65 37 59 5.10 -80 7 03/29/2025 12:00 PM
36297 15.4 4.03 5 66 37 59 5.10 -80 8 03/29/2025 11:45 AM
36296 15.4 4.14 0 64 37 59 5.10 -81 8 03/29/2025 11:30 AM
36295 15.5 4.03 5 63 36 60 5.10 -82 8 03/29/2025 11:15 AM